createdAt,value
2019-02-07T00:05:02.344Z,12.77
2019-02-07T00:10:07.604Z,10.73
2019-02-07T00:15:12.172Z,13.50
2019-02-07T00:20:16.973Z,13.70
2019-02-07T00:25:21.700Z,12.00
2019-02-07T00:30:26.930Z,13.53
2019-02-07T00:35:31.297Z,12.53
2019-02-07T00:40:36.250Z,13.27
2019-02-07T00:45:40.568Z,10.77
2019-02-07T00:50:44.669Z,12.97
2019-02-07T00:55:48.846Z,12.33
2019-02-07T01:00:54.525Z,10.13
2019-02-07T01:05:59.597Z,11.37
2019-02-07T01:11:04.568Z,10.47
2019-02-07T01:16:08.974Z,13.23
2019-02-07T01:21:13.244Z,14.67
2019-02-07T01:26:18.160Z,12.47
2019-02-07T01:31:22.418Z,12.23
2019-02-07T01:36:30.767Z,13.60
2019-02-07T01:41:36.079Z,12.30
2019-02-07T01:46:40.986Z,12.70
2019-02-07T01:51:45.995Z,10.70
2019-02-07T01:56:50.845Z,12.73
2019-02-07T02:01:55.162Z,12.67
2019-02-07T02:06:59.328Z,10.10
2019-02-07T02:12:06.456Z,11.77
2019-02-07T02:17:11.311Z,13.73
2019-02-07T02:22:17.066Z,12.70
2019-02-07T02:27:22.083Z,12.83
2019-02-07T02:32:26.367Z,11.43
2019-02-07T02:37:33.436Z,10.60
2019-02-07T02:42:38.572Z,10.63
2019-02-07T02:47:42.935Z,11.77
2019-02-07T02:52:47.358Z,12.70
2019-02-07T02:57:52.635Z,11.87
2019-02-07T03:03:15.764Z,12.13
2019-02-07T03:08:39.692Z,11.77
2019-02-07T03:14:08.761Z,12.87
2019-02-07T03:19:39.443Z,11.90
2019-02-07T03:25:01.671Z,10.87
2019-02-07T03:30:22.003Z,12.03
2019-02-07T03:35:33.951Z,11.90
2019-02-07T03:40:47.239Z,12.13
2019-02-07T03:46:08.292Z,12.67
2019-02-07T03:51:29.012Z,11.97
2019-02-07T03:56:53.562Z,11.47
2019-02-07T04:02:40.484Z,10.83
2019-02-07T04:07:52.922Z,9.57
2019-02-07T04:13:15.132Z,10.57
2019-02-07T04:18:38.570Z,10.23
2019-02-07T04:24:00.307Z,11.27
2019-02-07T04:29:22.555Z,9.80
2019-02-07T04:34:42.209Z,11.37
2019-02-07T04:40:12.381Z,10.33
2019-02-07T04:45:36.370Z,9.67
2019-02-07T04:50:50.995Z,12.03
2019-02-07T04:56:23.133Z,10.03
2019-02-07T05:01:46.987Z,10.03
2019-02-07T05:07:09.177Z,9.57
2019-02-07T05:12:39.045Z,10.07
2019-02-07T05:18:05.209Z,9.80
2019-02-07T05:23:41.092Z,9.30
2019-02-07T05:29:05.043Z,10.13
2019-02-07T05:34:28.010Z,9.60
2019-02-07T05:39:55.766Z,8.17
2019-02-07T05:45:15.727Z,9.40
2019-02-07T05:50:45.938Z,10.17
2019-02-07T05:56:11.896Z,8.83
2019-02-07T06:01:32.702Z,10.93
2019-02-07T06:06:56.266Z,9.00
2019-02-07T06:12:28.614Z,9.07
2019-02-07T06:17:43.189Z,10.87
2019-02-07T06:23:05.586Z,9.47
2019-02-07T06:28:34.407Z,11.07
2019-02-07T06:33:59.641Z,10.07
2019-02-07T06:39:19.567Z,10.77
2019-02-07T06:44:51.539Z,7.93
2019-02-07T06:50:18.184Z,10.63
2019-02-07T06:55:54.180Z,8.43
2019-02-07T07:01:20.886Z,9.23
2019-02-07T07:06:44.621Z,9.00
2019-02-07T07:12:13.470Z,9.93
2019-02-07T07:17:43.240Z,12.97
2019-02-07T07:23:24.980Z,12.27
2019-02-07T07:28:57.888Z,11.90
2019-02-07T07:34:37.335Z,12.07
2019-02-07T07:40:01.451Z,12.87
2019-02-07T07:45:21.751Z,12.37
2019-02-07T07:50:54.250Z,13.23
2019-02-07T07:56:20.908Z,11.37
2019-02-07T08:01:42.074Z,11.20
2019-02-07T08:07:04.478Z,9.53
2019-02-07T08:12:22.145Z,11.93
2019-02-07T08:18:04.130Z,10.57
2019-02-07T08:23:32.459Z,9.53
2019-02-07T08:28:46.639Z,11.40
2019-02-07T08:34:08.844Z,11.43
2019-02-07T08:39:50.756Z,11.07
2019-02-07T08:45:14.745Z,10.30
2019-02-07T08:50:42.735Z,8.67
2019-02-07T08:56:32.529Z,8.30
2019-02-07T09:02:01.052Z,7.70
2019-02-07T09:07:32.208Z,7.60
2019-02-07T09:12:56.281Z,4.97
2019-02-07T09:18:25.967Z,3.93
2019-02-07T09:23:54.548Z,2.17
2019-02-07T09:29:21.466Z,2.30
2019-02-07T09:34:35.150Z,3.10
2019-02-07T09:39:52.810Z,2.50
2019-02-07T09:45:08.565Z,2.60
2019-02-07T09:50:37.937Z,2.97
2019-02-07T09:56:10.560Z,3.23
2019-02-07T10:01:49.780Z,3.57
2019-02-07T10:07:03.003Z,3.30
2019-02-07T10:12:25.211Z,3.80
2019-02-07T10:17:50.318Z,3.73
2019-02-07T10:23:26.103Z,4.07
2019-02-07T10:28:44.130Z,3.70
2019-02-07T10:34:10.882Z,4.10
2019-02-07T10:39:23.472Z,4.27
2019-02-07T10:44:57.176Z,3.30
2019-02-07T10:50:10.274Z,4.20
2019-02-07T10:55:40.892Z,3.20
2019-02-07T11:01:06.317Z,3.67
2019-02-07T11:06:31.442Z,2.80
2019-02-07T11:11:59.905Z,3.53
2019-02-07T11:17:33.885Z,3.60
2019-02-07T11:23:11.668Z,3.70
2019-02-07T11:29:04.505Z,3.73
2019-02-07T11:35:03.428Z,3.90
2019-02-07T11:40:28.192Z,4.20
2019-02-07T11:45:57.992Z,4.17
2019-02-07T11:51:21.567Z,3.60
2019-02-07T11:56:46.792Z,3.93
2019-02-07T12:02:09.799Z,3.30
2019-02-07T12:07:33.853Z,3.77
2019-02-07T12:12:56.244Z,3.80
2019-02-07T12:18:35.222Z,3.33
2019-02-07T12:24:05.031Z,3.13
2019-02-07T12:29:27.440Z,2.90
2019-02-07T12:34:55.434Z,2.80
2019-02-07T12:40:19.241Z,3.50
2019-02-07T12:45:55.483Z,3.17
2019-02-07T12:51:29.030Z,3.33
2019-02-07T12:56:52.282Z,2.20
2019-02-07T13:02:31.677Z,2.37
2019-02-07T13:07:53.444Z,3.50
2019-02-07T13:13:25.445Z,2.53
2019-02-07T13:18:42.947Z,2.67
2019-02-07T13:24:16.176Z,2.73
2019-02-07T13:29:55.770Z,2.83
2019-02-07T13:35:32.063Z,2.40
2019-02-07T13:40:55.488Z,3.07
2019-02-07T13:46:17.518Z,2.77
2019-02-07T13:51:50.521Z,2.57
2019-02-07T13:57:15.189Z,2.60
2019-02-07T14:02:45.578Z,2.50
2019-02-07T14:08:09.122Z,2.30
2019-02-07T14:13:28.412Z,2.43
2019-02-07T14:19:00.027Z,2.57
2019-02-07T14:24:28.026Z,2.30
2019-02-07T14:29:47.749Z,2.50
2019-02-07T14:35:10.618Z,2.20
2019-02-07T14:40:37.951Z,2.17
2019-02-07T14:46:04.425Z,1.83
2019-02-07T14:51:12.926Z,2.17
2019-02-07T14:56:18.939Z,1.93
2019-02-07T15:01:28.875Z,2.50
2019-02-07T15:12:00.759Z,2.30
2019-02-07T15:17:05.844Z,2.40
2019-02-07T15:22:14.683Z,2.00
2019-02-07T15:27:19.974Z,2.17
2019-02-07T15:32:47.065Z,2.03
2019-02-07T15:38:16.535Z,1.87
2019-02-07T15:43:24.107Z,3.40
2019-02-07T15:48:29.235Z,3.87
2019-02-07T15:53:37.111Z,3.90
2019-02-07T15:59:02.115Z,2.10
2019-02-07T16:04:22.926Z,3.27
2019-02-07T16:09:28.476Z,2.17
2019-02-07T16:14:33.388Z,2.73
2019-02-07T16:19:41.062Z,2.13
2019-02-07T16:24:54.157Z,2.50
2019-02-07T16:30:36.350Z,2.53
2019-02-07T16:41:48.802Z,2.23
2019-02-07T16:46:57.946Z,2.30
2019-02-07T16:52:12.123Z,2.03
2019-02-07T16:57:19.930Z,2.70
2019-02-07T17:02:25.489Z,2.13
2019-02-07T17:07:32.218Z,3.97
2019-02-07T17:13:02.150Z,4.30
2019-02-07T17:18:14.847Z,3.93
2019-02-07T17:23:21.089Z,3.60
2019-02-07T17:28:37.549Z,2.87
2019-02-07T17:33:42.773Z,2.40
2019-02-07T17:38:48.029Z,2.27
2019-02-07T17:43:54.782Z,2.80
2019-02-07T17:49:02.016Z,2.37
2019-02-07T17:54:17.379Z,1.90
2019-02-07T17:59:17.089Z,2.43
2019-02-07T18:04:25.140Z,2.37
2019-02-07T18:09:30.803Z,1.87
2019-02-07T18:14:36.476Z,1.77
2019-02-07T18:20:00.974Z,2.20
2019-02-07T18:25:07.815Z,2.40
2019-02-07T18:30:16.305Z,2.60
2019-02-07T18:35:21.871Z,2.60
2019-02-07T18:40:31.287Z,2.40
2019-02-07T18:45:41.222Z,2.23
2019-02-07T18:50:50.582Z,2.30
2019-02-07T18:56:02.286Z,2.17
2019-02-07T19:01:07.339Z,2.30
2019-02-07T19:06:14.774Z,1.70
2019-02-07T19:11:20.352Z,2.10
2019-02-07T19:16:27.365Z,2.13
2019-02-07T19:21:33.268Z,1.80
2019-02-07T19:26:37.746Z,3.10
2019-02-07T19:31:43.790Z,2.53
2019-02-07T19:36:48.750Z,2.20
2019-02-07T19:41:53.241Z,1.90
2019-02-07T19:46:57.489Z,1.63
2019-02-07T19:52:08.302Z,2.00
2019-02-07T19:57:08.036Z,2.07
2019-02-07T20:02:14.165Z,1.80
2019-02-07T20:07:23.596Z,3.13
2019-02-07T20:12:29.123Z,2.40
2019-02-07T20:17:35.626Z,2.40
2019-02-07T20:22:40.193Z,2.83
2019-02-07T20:27:47.206Z,2.20
2019-02-07T20:32:54.177Z,2.23
2019-02-07T20:38:03.888Z,2.13
2019-02-07T20:43:09.259Z,1.50
2019-02-07T20:48:14.112Z,2.13
2019-02-07T20:53:24.687Z,1.70
2019-02-07T20:58:29.390Z,2.00
2019-02-07T21:03:33.898Z,2.20
2019-02-07T21:08:39.010Z,2.30
2019-02-07T21:13:44.108Z,1.60
2019-02-07T21:18:49.561Z,2.77
2019-02-07T21:23:55.765Z,2.40
2019-02-07T21:29:01.115Z,2.37
2019-02-07T21:34:08.786Z,2.50
2019-02-07T21:39:13.520Z,2.10
2019-02-07T21:44:18.658Z,1.87
2019-02-07T21:49:25.081Z,2.63
2019-02-07T21:54:30.343Z,2.70
2019-02-07T21:59:34.846Z,3.10
2019-02-07T22:04:39.202Z,2.93
2019-02-07T22:09:45.337Z,2.37
2019-02-07T22:14:57.125Z,2.70
2019-02-07T22:20:10.997Z,1.50
2019-02-07T22:25:21.600Z,1.80
2019-02-07T22:30:32.511Z,1.67
2019-02-07T22:35:37.336Z,1.93
2019-02-07T22:40:42.451Z,2.77
2019-02-07T22:45:48.360Z,2.03
2019-02-07T22:50:55.603Z,2.50
2019-02-07T22:55:59.166Z,2.13
2019-02-07T23:01:25.618Z,3.07
2019-02-07T23:06:31.028Z,1.93
2019-02-07T23:11:36.165Z,1.90
2019-02-07T23:16:41.275Z,1.93
2019-02-07T23:21:45.614Z,1.87
2019-02-07T23:26:50.861Z,2.20
2019-02-07T23:31:55.468Z,2.23
2019-02-07T23:36:59.744Z,2.57
2019-02-07T23:42:05.150Z,2.67
2019-02-07T23:47:10.870Z,2.63
2019-02-07T23:52:16.737Z,2.27
2019-02-07T23:57:22.326Z,1.87
